Time;durP1;ratioP1;P1;durP2;ratioP2;P2;SDS_P1;SDS_P2;PMS_P1;PMS_P2;Temp;Humidity;BMP_temperature;BMP_pressure;BME280_temperature;BME280_humidity;BME280_pressure;Samples;Min_cycle;Max_cycle;Signal;HPM_P1;HPM_P2
2022/06/17 00:03:27;;;;;;;;;;;;;;;;;;10419947;28;19926;-65
2022/06/17 00:08:29;;;;;;;;;;;;;;;;;;10420425;28;19929;-65
2022/06/17 00:13:31;;;;;;;;;;;;;;;;;;10420337;28;19925;-65
2022/06/17 00:18:33;;;;;;;;;;;;;;;;;;10419345;28;19929;-66
2022/06/17 00:23:35;;;;;;;;;;;;;;;;;;10418475;28;20391;-65
2022/06/17 00:28:37;;;;;;;;;;;;;;;;;;10448760;28;19929;-65
2022/06/17 00:33:39;;;;;;;;;;;;;;;;;;10458943;28;19935;-65
2022/06/17 00:38:42;;;;;;;;;;;;;;;;;;10460436;28;19999;-65
2022/06/17 00:43:44;;;;;;;;;;;;;;;;;;10459931;28;19932;-65
2022/06/17 00:48:46;;;;;;;;;;;;;;;;;;10459766;28;19925;-65
2022/06/17 00:53:48;;;;;;;;;;;;;;;;;;10452212;28;19925;-65
2022/06/17 00:58:50;;;;;;;;;;;;;;;;;;10418369;28;19931;-65
2022/06/17 01:03:52;;;;;;;;;;;;;;;;;;10418180;28;19932;-66
2022/06/17 01:14:15;;;;;;;;;;;;;;;;;;10376190;28;19933;-65
2022/06/17 01:19:17;;;;;;;;;;;;;;;;;;10376173;28;19949;-65
2022/06/17 01:24:19;;;;;;;;;;;;;;;;;;10428883;28;19936;-65
2022/06/17 01:29:21;;;;;;;;;;;;;;;;;;10453446;28;19929;-66
2022/06/17 01:34:24;;;;;;;;;;;;;;;;;;10416193;28;19929;-65
2022/06/17 01:39:26;;;;;;;;;;;;;;;;;;10416380;28;20318;-64
2022/06/17 01:44:33;;;;;;;;;;;;;;;;;;10416114;28;20288;-65
2022/06/17 01:49:35;;;;;;;;;;;;;;;;;;10417666;28;19932;-65
2022/06/17 01:54:37;;;;;;;;;;;;;;;;;;10417566;28;19925;-65
2022/06/17 01:59:40;;;;;;;;;;;;;;;;;;10416374;28;19936;-65
2022/06/17 02:04:42;;;;;;;;;;;;;;;;;;10445915;28;19924;-65
2022/06/17 02:09:44;;;;;;;;;;;;;;;;;;10454672;28;19924;-65
2022/06/17 02:14:46;;;;;;;;;;;;;;;;;;10423542;28;19933;-65
2022/06/17 02:19:48;;;;;;;;;;;;;;;;;;10415277;28;20292;-65
2022/06/17 02:24:50;;;;;;;;;;;;;;;;;;10448388;28;19936;-65
2022/06/17 02:29:52;;;;;;;;;;;;;;;;;;10455214;28;19924;-65
2022/06/17 02:34:54;;;;;;;;;;;;;;;;;;10422000;28;19925;-65
2022/06/17 02:39:56;;;;;;;;;;;;;;;;;;10415531;28;19932;-65
2022/06/17 02:44:58;;;;;;;;;;;;;;;;;;10448481;28;20291;-65
2022/06/17 02:50:00;;;;;;;;;;;;;;;;;;10461345;28;19928;-65
2022/06/17 02:55:02;;;;;;;;;;;;;;;;;;10429905;28;19932;-64
2022/06/17 03:00:04;;;;;;;;;;;;;;;;;;10422440;28;20395;-64
2022/06/17 03:05:06;;;;;;;;;;;;;;;;;;10456798;28;20307;-65
2022/06/17 03:10:08;;;;;;;;;;;;;;;;;;10452917;28;19925;-64
2022/06/17 03:15:11;;;;;;;;;;;;;;;;;;10456746;28;19928;-65
2022/06/17 03:20:13;;;;;;;;;;;;;;;;;;10463506;28;19932;-64
2022/06/17 03:25:15;;;;;;;;;;;;;;;;;;10427614;28;19929;-65
2022/06/17 03:30:17;;;;;;;;;;;;;;;;;;10433682;28;19932;-65
2022/06/17 03:35:19;;;;;;;;;;;;;;;;;;10426195;28;19969;-65
2022/06/17 03:40:21;;;;;;;;;;;;;;;;;;10421472;28;19935;-65
2022/06/17 03:45:23;;;;;;;;;;;;;;;;;;10457344;28;19925;-65
2022/06/17 03:50:25;;;;;;;;;;;;;;;;;;10460361;28;19932;-65
2022/06/17 03:55:27;;;;;;;;;;;;;;;;;;10425389;28;19929;-65
2022/06/17 04:00:29;;;;;;;;;;;;;;;;;;10419655;28;19925;-65
2022/06/17 04:05:31;;;;;;;;;;;;;;;;;;10456086;28;19936;-66
2022/06/17 04:10:34;;;;;;;;;;;;;;;;;;10459406;28;19924;-66
2022/06/17 04:15:36;;;;;;;;;;;;;;;;;;10426471;28;19925;-65
2022/06/17 04:20:38;;;;;;;;;;;;;;;;;;10419933;28;19931;-65
2022/06/17 04:25:40;;;;;;;;;;;;;;;;;;10419696;28;19925;-65
2022/06/17 04:30:42;;;;;;;;;;;;;;;;;;10420442;28;20395;-66
2022/06/17 04:35:44;;;;;;;;;;;;;;;;;;10459305;28;20268;-65
2022/06/17 04:40:46;;;;;;;;;;;;;;;;;;10460576;28;19932;-65
2022/06/17 04:45:48;;;;;;;;;;;;;;;;;;10460270;28;19925;-65
2022/06/17 04:50:50;;;;;;;;;;;;;;;;;;10459295;28;20394;-66
2022/06/17 04:55:52;;;;;;;;;;;;;;;;;;10459813;28;19925;-65
2022/06/17 05:00:55;;;;;;;;;;;;;;;;;;10458917;28;19952;-66
2022/06/17 05:05:57;;;;;;;;;;;;;;;;;;10459425;28;19932;-66
2022/06/17 05:10:59;;;;;;;;;;;;;;;;;;10458452;28;20379;-65
2022/06/17 05:16:01;;;;;;;;;;;;;;;;;;10458325;28;19944;-65
2022/06/17 05:21:03;;;;;;;;;;;;;;;;;;10458143;28;19924;-65
2022/06/17 05:26:05;;;;;;;;;;;;;;;;;;10458014;28;20362;-65
2022/06/17 05:31:07;;;;;;;;;;;;;;;;;;10458292;28;19925;-65
2022/06/17 05:36:10;;;;;;;;;;;;;;;;;;10458318;28;19932;-65
2022/06/17 05:41:12;;;;;;;;;;;;;;;;;;10457433;28;20402;-65
2022/06/17 05:46:14;;;;;;;;;;;;;;;;;;10457894;28;19932;-65
2022/06/17 05:51:16;;;;;;;;;;;;;;;;;;10457698;28;19978;-65
2022/06/17 05:56:18;;;;;;;;;;;;;;;;;;10457554;28;19932;-65
2022/06/17 06:01:20;;;;;;;;;;;;;;;;;;10456813;28;19924;-65
2022/06/17 06:06:22;;;;;;;;;;;;;;;;;;10456672;28;20273;-65
2022/06/17 06:11:24;;;;;;;;;;;;;;;;;;10457081;28;19925;-65
2022/06/17 06:16:26;;;;;;;;;;;;;;;;;;10456446;28;19925;-65
2022/06/17 06:21:28;;;;;;;;;;;;;;;;;;10458697;28;20293;-65
2022/06/17 06:26:30;;;;;;;;;;;;;;;;;;10465499;28;19924;-65
2022/06/17 06:31:33;;;;;;;;;;;;;;;;;;10465222;28;19935;-64
2022/06/17 06:36:35;;;;;;;;;;;;;;;;;;10464520;28;19964;-65
2022/06/17 06:41:37;;;;;;;;;;;;;;;;;;10464897;28;19935;-65
2022/06/17 06:46:39;;;;;;;;;;;;;;;;;;10464730;28;19928;-65
2022/06/17 06:51:41;;;;;;;;;;;;;;;;;;10464544;28;19924;-65
2022/06/17 06:56:43;;;;;;;;;;;;;;;;;;10464410;28;19924;-65
2022/06/17 07:01:46;;;;;;;;;;;;;;;;;;10464252;28;19925;-65
2022/06/17 07:06:48;;;;;;;;;;;;;;;;;;10464043;28;19925;-66
2022/06/17 07:11:50;;;;;;;;;;;;;;;;;;10463560;28;19925;-64
2022/06/17 07:16:52;;;;;;;;;;;;;;;;;;10463776;28;19933;-65
2022/06/17 07:21:54;;;;;;;;;;;;;;;;;;10463456;28;20015;-65
2022/06/17 07:26:56;;;;;;;;;;;;;;;;;;10472869;22;20242;-65
2022/06/17 07:32:00;;;;;;;;;;;;;;;;;;10421169;28;19925;-65
2022/06/17 07:42:22;;;;;;;;;;;;;;;;;;10420874;28;20296;-66
2022/06/17 07:47:24;;;;;;;;;;;;;;;;;;10421265;28;20008;-66
2022/06/17 07:52:27;;;;;;;;;;;;;;;;;;10421064;28;19925;-66
2022/06/17 07:57:29;;;;;;;;;;;;;;;;;;10420962;28;19936;-65
2022/06/17 08:02:31;;;;;;;;;;;;;;;;;;10420149;28;20319;-66
2022/06/17 08:07:33;;;;;;;;;;;;;;;;;;10420602;28;19932;-66
2022/06/17 08:12:35;;;;;;;;;;;;;;;;;;10420236;28;19932;-66
2022/06/17 08:17:38;;;;;;;;;;;;;;;;;;10420209;28;19925;-66
2022/06/17 08:22:42;;;;;;;;;;;;;;;;;;10419363;28;20279;-66
2022/06/17 08:27:44;;;;;;;;;;;;;;;;;;10419410;28;19933;-66
2022/06/17 08:32:47;;;;;;;;;;;;;;;;;;10418983;28;19988;-67
2022/06/17 08:37:49;;;;;;;;;;;;;;;;;;10419394;28;19932;-66
2022/06/17 08:42:51;;;;;;;;;;;;;;;;;;10418953;28;19925;-67
2022/06/17 08:47:53;;;;;;;;;;;;;;;;;;10418713;28;19925;-66
2022/06/17 08:52:55;;;;;;;;;;;;;;;;;;10418649;28;19940;-66
2022/06/17 08:57:58;;;;;;;;;;;;;;;;;;10418603;28;19925;-66
2022/06/17 09:03:01;;;;;;;;;;;;;;;;;;10418303;28;19932;-67
2022/06/17 09:08:03;;;;;;;;;;;;;;;;;;10418294;28;19958;-67
2022/06/17 09:13:05;;;;;;;;;;;;;;;;;;10417874;28;19932;-66
2022/06/17 09:18:07;;;;;;;;;;;;;;;;;;10417136;28;20368;-67
2022/06/17 09:23:09;;;;;;;;;;;;;;;;;;10417660;28;19925;-67
2022/06/17 09:28:11;;;;;;;;;;;;;;;;;;10417081;28;19932;-67
2022/06/17 09:33:13;;;;;;;;;;;;;;;;;;10415397;28;19925;-66
2022/06/17 09:38:15;;;;;;;;;;;;;;;;;;10416479;28;20380;-66
2022/06/17 09:43:17;;;;;;;;;;;;;;;;;;10415160;28;19924;-67
2022/06/17 09:48:19;;;;;;;;;;;;;;;;;;10416784;28;19929;-67
2022/06/17 09:53:21;;;;;;;;;;;;;;;;;;10416517;28;19925;-67
2022/06/17 09:58:23;;;;;;;;;;;;;;;;;;10415655;28;19925;-67
2022/06/17 10:03:25;;;;;;;;;;;;;;;;;;10416313;28;19929;-67
2022/06/17 10:08:27;;;;;;;;;;;;;;;;;;10416189;28;19925;-68
2022/06/17 10:13:30;;;;;;;;;;;;;;;;;;10416010;28;19929;-67
2022/06/17 10:18:32;;;;;;;;;;;;;;;;;;10415329;28;19932;-67
2022/06/17 10:23:34;;;;;;;;;;;;;;;;;;10415903;28;19957;-67
2022/06/17 10:28:36;;;;;;;;;;;;;;;;;;10415456;28;19925;-66
2022/06/17 10:33:39;;;;;;;;;;;;;;;;;;10414417;28;20028;-67
2022/06/17 10:38:41;;;;;;;;;;;;;;;;;;10414986;28;20435;-67
2022/06/17 10:43:43;;;;;;;;;;;;;;;;;;10415550;28;19925;-68
2022/06/17 10:48:45;;;;;;;;;;;;;;;;;;10414248;28;19975;-68
2022/06/17 10:53:47;;;;;;;;;;;;;;;;;;10415267;28;19925;-68
2022/06/17 10:58:50;;;;;;;;;;;;;;;;;;10415210;28;19929;-67
2022/06/17 11:03:52;;;;;;;;;;;;;;;;;;10414767;28;19932;-67
2022/06/17 11:08:54;;;;;;;;;;;;;;;;;;10419308;28;19925;-67
2022/06/17 11:13:56;;;;;;;;;;;;;;;;;;10422643;28;19932;-68
2022/06/17 11:18:58;;;;;;;;;;;;;;;;;;10422471;28;19925;-67
2022/06/17 11:24:00;;;;;;;;;;;;;;;;;;10422302;28;19944;-67
2022/06/17 11:29:02;;;;;;;;;;;;;;;;;;10421302;28;19925;-67
2022/06/17 11:34:04;;;;;;;;;;;;;;;;;;10421822;28;19925;-67
2022/06/17 11:39:06;;;;;;;;;;;;;;;;;;10421121;28;19925;-67
2022/06/17 11:44:09;;;;;;;;;;;;;;;;;;10420913;28;19932;-67
2022/06/17 11:49:11;;;;;;;;;;;;;;;;;;10421260;28;20017;-67
2022/06/17 11:54:13;;;;;;;;;;;;;;;;;;10420428;28;20276;-67
2022/06/17 11:59:15;;;;;;;;;;;;;;;;;;10420304;28;19925;-68
2022/06/17 12:04:17;;;;;;;;;;;;;;;;;;10420759;28;19933;-67
2022/06/17 12:09:22;;;;;;;;;;;;;;;;;;10419920;28;19968;-68
2022/06/17 12:14:24;;;;;;;;;;;;;;;;;;10419686;28;20012;-67
2022/06/17 12:19:26;;;;;;;;;;;;;;;;;;10418600;28;19931;-67
2022/06/17 12:24:28;;;;;;;;;;;;;;;;;;10419958;28;19932;-67
2022/06/17 12:29:30;;;;;;;;;;;;;;;;;;10418988;28;20538;-68
2022/06/17 12:34:32;;;;;;;;;;;;;;;;;;10419498;28;19931;-67
2022/06/17 12:39:34;;;;;;;;;;;;;;;;;;10418735;28;19925;-67
2022/06/17 12:44:38;;;;;;;;;;;;;;;;;;10419147;28;19925;-68
2022/06/17 12:55:00;;;;;;;;;;;;;;;;;;10418654;28;19936;-67
2022/06/17 13:00:02;;;;;;;;;;;;;;;;;;10418909;28;20016;-68
2022/06/17 13:05:05;;;;;;;;;;;;;;;;;;10418415;28;20008;-68
2022/06/17 13:15:27;;;;;;;;;;;;;;;;;;10417869;28;19932;-68
2022/06/17 13:20:29;;;;;;;;;;;;;;;;;;10417764;28;19932;-68
2022/06/17 13:25:31;;;;;;;;;;;;;;;;;;10417602;28;19925;-67
2022/06/17 13:30:34;;;;;;;;;;;;;;;;;;10416501;28;20261;-67
2022/06/17 13:35:36;;;;;;;;;;;;;;;;;;10416569;28;19925;-68
2022/06/17 13:40:38;;;;;;;;;;;;;;;;;;10417036;28;19925;-67
2022/06/17 13:45:40;;;;;;;;;;;;;;;;;;10416870;28;19931;-68
2022/06/17 13:50:43;;;;;;;;;;;;;;;;;;10416146;28;19925;-67
2022/06/17 13:55:45;;;;;;;;;;;;;;;;;;10415312;28;19925;-68
2022/06/17 14:00:47;;;;;;;;;;;;;;;;;;10416452;28;19925;-68
2022/06/17 14:06:09;;;;;;;;;;;;;;;;;;10416349;28;19929;-67
2022/06/17 14:16:32;;;;;;;;;;;;;;;;;;10416020;28;19932;-67
2022/06/17 14:21:37;;;;;;;;;;;;;;;;;;10415989;28;19925;-68
2022/06/17 14:26:39;;;;;;;;;;;;;;;;;;10415892;28;19925;-67
2022/06/17 14:31:42;;;;;;;;;;;;;;;;;;10414939;28;20273;-67
2022/06/17 14:36:44;;;;;;;;;;;;;;;;;;10415748;28;19925;-68
2022/06/17 14:42:05;;;;;;;;;;;;;;;;;;10416643;28;19925;-68
2022/06/17 14:47:07;;;;;;;;;;;;;;;;;;10423777;28;20008;-68
2022/06/17 14:52:09;;;;;;;;;;;;;;;;;;10422840;28;19925;-68
2022/06/17 14:57:11;;;;;;;;;;;;;;;;;;10422784;28;20394;-67
2022/06/17 15:02:16;;;;;;;;;;;;;;;;;;10423264;28;19925;-68
2022/06/17 15:07:18;;;;;;;;;;;;;;;;;;10422411;28;20284;-67
2022/06/17 15:12:20;;;;;;;;;;;;;;;;;;10422759;28;19968;-68
2022/06/17 15:17:22;;;;;;;;;;;;;;;;;;10422613;28;19925;-67
2022/06/17 15:22:24;;;;;;;;;;;;;;;;;;10421947;28;19925;-67
2022/06/17 15:27:26;;;;;;;;;;;;;;;;;;10422052;28;19925;-68
2022/06/17 15:32:29;;;;;;;;;;;;;;;;;;10422027;28;19929;-68
2022/06/17 15:37:31;;;;;;;;;;;;;;;;;;10421219;28;19928;-67
2022/06/17 15:42:33;;;;;;;;;;;;;;;;;;10421634;28;19933;-68
2022/06/17 15:47:35;;;;;;;;;;;;;;;;;;10421453;28;19925;-67
2022/06/17 15:52:41;;;;;;;;;;;;;;;;;;10419421;28;19925;-67
2022/06/17 15:57:50;;;;;;;;;;;;;;;;;;10420554;28;19932;-67
2022/06/17 16:02:52;;;;;;;;;;;;;;;;;;10420298;28;20304;-68
2022/06/17 16:07:55;;;;;;;;;;;;;;;;;;10418884;28;20391;-67
2022/06/17 16:12:57;;;;;;;;;;;;;;;;;;10420362;28;19932;-67
2022/06/17 16:17:59;;;;;;;;;;;;;;;;;;10419666;28;19925;-67
2022/06/17 16:23:01;;;;;;;;;;;;;;;;;;10419394;28;19929;-67
2022/06/17 16:28:03;;;;;;;;;;;;;;;;;;10419546;28;19925;-67
2022/06/17 16:33:05;;;;;;;;;;;;;;;;;;10418944;28;20505;-67
2022/06/17 16:38:07;;;;;;;;;;;;;;;;;;10418806;28;19947;-67
2022/06/17 16:48:30;;;;;;;;;;;;;;;;;;10418400;28;20368;-67
2022/06/17 16:53:32;;;;;;;;;;;;;;;;;;10417650;28;19929;-67
2022/06/17 16:58:34;;;;;;;;;;;;;;;;;;10418047;28;20307;-67
2022/06/17 17:03:36;;;;;;;;;;;;;;;;;;10417825;28;19933;-67
2022/06/17 17:08:38;;;;;;;;;;;;;;;;;;10417868;28;19929;-67
2022/06/17 17:13:40;;;;;;;;;;;;;;;;;;10417994;28;19929;-67
2022/06/17 17:18:42;;;;;;;;;;;;;;;;;;10417870;28;20012;-67
2022/06/17 17:23:44;;;;;;;;;;;;;;;;;;10417627;28;19925;-67
2022/06/17 17:28:46;;;;;;;;;;;;;;;;;;10416537;28;19932;-67
2022/06/17 17:33:49;;;;;;;;;;;;;;;;;;10417214;28;19932;-67
2022/06/17 17:38:51;;;;;;;;;;;;;;;;;;10417184;28;19931;-66
2022/06/17 17:43:53;;;;;;;;;;;;;;;;;;10416371;28;20086;-67
2022/06/17 17:48:57;;;;;;;;;;;;;;;;;;10416191;28;21574;-66
2022/06/17 17:53:59;;;;;;;;;;;;;;;;;;10415626;28;19925;-66
2022/06/17 17:59:01;;;;;;;;;;;;;;;;;;10416535;28;19929;-67
2022/06/17 18:04:03;;;;;;;;;;;;;;;;;;10415691;28;20261;-66
2022/06/17 18:09:05;;;;;;;;;;;;;;;;;;10416180;28;19925;-67
2022/06/17 18:14:07;;;;;;;;;;;;;;;;;;10416230;28;19925;-67
2022/06/17 18:19:10;;;;;;;;;;;;;;;;;;10415227;28;19925;-66
2022/06/17 18:24:12;;;;;;;;;;;;;;;;;;10415862;28;19929;-66
2022/06/17 18:29:14;;;;;;;;;;;;;;;;;;10414969;28;20029;-66
2022/06/17 18:34:16;;;;;;;;;;;;;;;;;;10415628;28;19932;-66
2022/06/17 18:39:18;;;;;;;;;;;;;;;;;;10417304;28;19925;-66
2022/06/17 18:44:20;;;;;;;;;;;;;;;;;;10427068;28;20376;-67
2022/06/17 18:49:23;;;;;;;;;;;;;;;;;;10414444;28;20055;-66
2022/06/17 18:54:25;;;;;;;;;;;;;;;;;;10418331;28;20300;-66
2022/06/17 18:59:27;;;;;;;;;;;;;;;;;;10415502;28;19925;-66
2022/06/17 19:04:29;;;;;;;;;;;;;;;;;;10441302;28;20291;-66
2022/06/17 19:20:19;;;;;;;;;;;;;;;;;;10428212;28;19928;-66
2022/06/17 19:25:21;;;;;;;;;;;;;;;;;;10414672;28;19925;-66
2022/06/17 19:30:23;;;;;;;;;;;;;;;;;;10418945;28;19929;-66
2022/06/17 19:35:25;;;;;;;;;;;;;;;;;;10421959;28;19925;-66
2022/06/17 19:40:27;;;;;;;;;;;;;;;;;;10440888;28;19932;-66
2022/06/17 19:45:30;;;;;;;;;;;;;;;;;;10429025;22;19925;-67
2022/06/17 19:50:32;;;;;;;;;;;;;;;;;;10421154;28;19925;-67
2022/06/17 19:55:35;;;;;;;;;;;;;;;;;;10420583;28;19932;-67
2022/06/17 20:00:37;;;;;;;;;;;;;;;;;;10420196;28;19932;-67
2022/06/17 20:05:39;;;;;;;;;;;;;;;;;;10420888;28;19932;-67
2022/06/17 20:10:43;;;;;;;;;;;;;;;;;;10421298;28;19925;-67
2022/06/17 20:15:45;;;;;;;;;;;;;;;;;;10419627;28;19931;-67
2022/06/17 20:20:47;;;;;;;;;;;;;;;;;;10419882;28;19925;-67
2022/06/17 20:25:49;;;;;;;;;;;;;;;;;;10419120;28;20011;-67
2022/06/17 20:30:52;;;;;;;;;;;;;;;;;;10418560;28;19925;-67
2022/06/17 20:35:54;;;;;;;;;;;;;;;;;;10413254;28;20426;-67
2022/06/17 20:40:56;;;;;;;;;;;;;;;;;;10418175;28;19932;-67
2022/06/17 20:51:19;;;;;;;;;;;;;;;;;;10418217;28;19925;-66
2022/06/17 20:56:21;;;;;;;;;;;;;;;;;;10417700;28;19925;-67
2022/06/17 21:01:25;;;;;;;;;;;;;;;;;;10416725;28;20368;-67
2022/06/17 21:06:27;;;;;;;;;;;;;;;;;;10417680;28;19925;-67
2022/06/17 21:11:29;;;;;;;;;;;;;;;;;;10418207;28;19925;-67
2022/06/17 21:16:31;;;;;;;;;;;;;;;;;;10417694;28;19932;-66
2022/06/17 21:21:34;;;;;;;;;;;;;;;;;;10417227;28;20331;-66
2022/06/17 21:26:36;;;;;;;;;;;;;;;;;;10417465;28;19972;-67
2022/06/17 21:31:38;;;;;;;;;;;;;;;;;;10417340;28;19931;-67
2022/06/17 21:36:40;;;;;;;;;;;;;;;;;;10416921;28;19932;-66
2022/06/17 21:41:42;;;;;;;;;;;;;;;;;;10416343;28;20372;-66
2022/06/17 21:46:44;;;;;;;;;;;;;;;;;;10416171;28;19933;-66
2022/06/17 21:51:46;;;;;;;;;;;;;;;;;;10416824;28;19932;-66
2022/06/17 21:56:48;;;;;;;;;;;;;;;;;;10415453;28;19925;-66
2022/06/17 22:01:50;;;;;;;;;;;;;;;;;;10416549;28;19932;-67
2022/06/17 22:06:53;;;;;;;;;;;;;;;;;;10416375;28;19925;-67
2022/06/17 22:12:01;;;;;;;;;;;;;;;;;;10415198;28;19951;-66
2022/06/17 22:17:03;;;;;;;;;;;;;;;;;;10415337;28;19973;-66
2022/06/17 22:22:05;;;;;;;;;;;;;;;;;;10415688;28;19936;-66
2022/06/17 22:27:07;;;;;;;;;;;;;;;;;;10415911;28;19925;-66
2022/06/17 22:32:09;;;;;;;;;;;;;;;;;;10415261;28;19929;-66
2022/06/17 22:37:11;;;;;;;;;;;;;;;;;;10414609;28;20295;-66
2022/06/17 22:42:14;;;;;;;;;;;;;;;;;;10414842;28;20410;-66
2022/06/17 22:47:16;;;;;;;;;;;;;;;;;;10414706;28;19947;-66
2022/06/17 22:52:19;;;;;;;;;;;;;;;;;;10414440;28;20024;-66
2022/06/17 22:57:21;;;;;;;;;;;;;;;;;;10413863;28;19925;-66
2022/06/17 23:02:23;;;;;;;;;;;;;;;;;;10415687;28;19925;-66
2022/06/17 23:07:25;;;;;;;;;;;;;;;;;;10421482;28;19988;-66
2022/06/17 23:12:27;;;;;;;;;;;;;;;;;;10422837;28;19925;-66
2022/06/17 23:17:29;;;;;;;;;;;;;;;;;;10422215;28;19934;-66
2022/06/17 23:22:31;;;;;;;;;;;;;;;;;;10421900;28;20372;-66
2022/06/17 23:27:33;;;;;;;;;;;;;;;;;;10422344;28;19925;-66
2022/06/17 23:32:35;;;;;;;;;;;;;;;;;;10420585;28;20388;-66
2022/06/17 23:37:38;;;;;;;;;;;;;;;;;;10420958;28;19925;-66
2022/06/17 23:42:42;;;;;;;;;;;;;;;;;;10421745;28;19925;-66
2022/06/17 23:47:44;;;;;;;;;;;;;;;;;;10420047;28;19932;-67
2022/06/17 23:52:46;;;;;;;;;;;;;;;;;;10420588;28;19948;-66
2022/06/17 23:57:48;;;;;;;;;;;;;;;;;;10419681;28;20396;-67
